createdAt,value
2019-05-21T00:02:14.332Z,50.77
2019-05-21T00:04:43.466Z,57.13
2019-05-21T00:07:12.450Z,49.93
2019-05-21T00:09:41.489Z,44.17
2019-05-21T00:12:10.423Z,52.43
2019-05-21T00:14:39.402Z,43.97
2019-05-21T00:17:08.288Z,44.10
2019-05-21T00:19:37.409Z,42.53
2019-05-21T00:22:06.377Z,40.33
2019-05-21T00:24:35.530Z,43.53
2019-05-21T00:27:04.528Z,33.97
2019-05-21T00:30:09.548Z,39.63
2019-05-21T00:33:14.703Z,34.07
2019-05-21T00:36:21.153Z,35.53
2019-05-21T00:39:26.082Z,34.10
2019-05-21T00:42:00.083Z,28.37
2019-05-21T00:44:31.509Z,30.30
2019-05-21T00:47:00.567Z,28.70
2019-05-21T00:49:29.783Z,26.97
2019-05-21T00:52:08.124Z,27.67
2019-05-21T00:54:30.349Z,25.90
2019-05-21T00:56:59.502Z,23.03
2019-05-21T00:59:28.576Z,21.50
2019-05-21T01:01:57.600Z,22.60
2019-05-21T01:04:26.836Z,16.80
2019-05-21T01:06:55.816Z,14.73
2019-05-21T01:09:24.935Z,14.67
2019-05-21T01:11:54.108Z,15.63
2019-05-21T01:14:27.131Z,13.47
2019-05-21T01:16:56.235Z,11.47
2019-05-21T01:19:25.207Z,11.40
2019-05-21T01:21:54.142Z,9.27
2019-05-21T01:24:23.356Z,10.13
2019-05-21T01:26:52.522Z,6.50
2019-05-21T01:29:21.577Z,8.07
2019-05-21T01:31:50.588Z,10.77
2019-05-21T01:34:19.851Z,7.33
2019-05-21T01:36:49.425Z,7.13
2019-05-21T01:39:18.655Z,7.87
2019-05-21T01:41:47.683Z,6.93
2019-05-21T01:44:16.962Z,6.20
2019-05-21T01:46:46.278Z,6.73
2019-05-21T01:49:15.282Z,6.33
2019-05-21T01:51:44.122Z,7.03
2019-05-21T01:54:12.974Z,14.37
2019-05-21T01:56:42.042Z,6.03
2019-05-21T01:59:11.045Z,6.50
2019-05-21T02:01:40.059Z,6.23
2019-05-21T02:04:09.169Z,6.13
2019-05-21T02:06:38.303Z,7.03
2019-05-21T02:09:08.614Z,5.57
2019-05-21T02:11:37.414Z,6.93
2019-05-21T02:14:09.365Z,5.63
2019-05-21T02:16:38.301Z,6.97
2019-05-21T02:19:07.556Z,6.73
2019-05-21T02:21:36.501Z,6.50
2019-05-21T02:24:05.587Z,7.40
2019-05-21T02:26:34.558Z,7.27
2019-05-21T02:29:04.134Z,6.77
2019-05-21T02:31:33.271Z,7.63
2019-05-21T02:34:02.121Z,8.33
2019-05-21T02:36:31.342Z,8.50
2019-05-21T02:39:00.378Z,6.90
2019-05-21T02:41:29.431Z,8.70
2019-05-21T02:43:58.337Z,7.60
2019-05-21T02:46:27.399Z,8.57
2019-05-21T02:48:59.609Z,8.93
2019-05-21T02:51:28.642Z,8.30
2019-05-21T02:53:57.798Z,8.83
2019-05-21T02:56:26.913Z,8.00
2019-05-21T02:58:56.021Z,8.63
2019-05-21T03:01:31.714Z,7.53
2019-05-21T03:04:00.766Z,8.07
2019-05-21T03:06:29.896Z,7.73
2019-05-21T03:08:58.920Z,6.53
2019-05-21T03:11:28.053Z,7.07
2019-05-21T03:13:57.146Z,6.33
2019-05-21T03:16:26.211Z,6.10
2019-05-21T03:18:55.191Z,10.47
2019-05-21T03:21:24.183Z,6.30
2019-05-21T03:23:53.220Z,5.77
2019-05-21T03:26:22.315Z,5.27
2019-05-21T03:28:51.233Z,5.97
2019-05-21T03:31:20.196Z,8.37
2019-05-21T03:33:49.207Z,9.47
2019-05-21T03:36:32.443Z,7.50
2019-05-21T03:38:48.904Z,6.90
2019-05-21T03:41:17.730Z,8.07
2019-05-21T03:43:46.943Z,5.23
2019-05-21T03:46:16.031Z,5.83
2019-05-21T03:48:45.319Z,4.70
2019-05-21T03:51:14.602Z,5.30
2019-05-21T03:53:43.532Z,4.47
2019-05-21T03:56:12.611Z,4.00
2019-05-21T03:58:41.593Z,3.47
2019-05-21T04:01:10.475Z,2.70
2019-05-21T04:03:39.291Z,3.47
2019-05-21T04:06:08.295Z,2.30
2019-05-21T04:08:37.291Z,4.83
2019-05-21T04:11:06.238Z,4.10
2019-05-21T04:13:35.121Z,4.17
2019-05-21T04:16:10.255Z,3.97
2019-05-21T04:18:46.655Z,3.40
2019-05-21T04:21:15.633Z,3.17
2019-05-21T04:23:44.647Z,3.43
2019-05-21T04:26:13.562Z,4.47
2019-05-21T04:28:42.495Z,3.27
2019-05-21T04:31:11.824Z,5.03
2019-05-21T04:33:40.732Z,3.30
2019-05-21T04:36:10.542Z,1.53
2019-05-21T04:38:39.721Z,1.83
2019-05-21T04:41:08.722Z,1.80
2019-05-21T04:43:37.598Z,3.23
2019-05-21T04:46:06.652Z,2.27
2019-05-21T04:48:35.491Z,2.00
2019-05-21T04:51:04.488Z,1.70
2019-05-21T04:53:33.303Z,1.50
2019-05-21T04:56:02.261Z,1.23
2019-05-21T04:58:31.112Z,2.90
2019-05-21T05:01:00.090Z,1.43
2019-05-21T05:03:29.071Z,2.23
2019-05-21T05:05:57.898Z,1.80
2019-05-21T05:08:26.915Z,1.93
2019-05-21T05:10:55.816Z,1.67
2019-05-21T05:13:24.654Z,2.57
2019-05-21T05:15:53.722Z,3.00
2019-05-21T05:18:22.683Z,2.40
2019-05-21T05:20:51.582Z,3.00
2019-05-21T05:23:20.612Z,2.17
2019-05-21T05:25:49.578Z,1.50
2019-05-21T05:28:18.478Z,1.40
2019-05-21T05:30:47.551Z,1.53
2019-05-21T05:33:16.440Z,2.30
2019-05-21T05:35:45.306Z,1.60
2019-05-21T05:38:14.247Z,1.40
2019-05-21T05:40:43.210Z,1.37
2019-05-21T05:43:12.146Z,1.10
2019-05-21T05:45:41.098Z,2.20
2019-05-21T05:48:10.075Z,1.45
2019-05-21T05:50:41.030Z,1.43
2019-05-21T05:53:10.018Z,2.07
2019-05-21T05:55:39.035Z,1.47
2019-05-21T05:58:08.038Z,1.83
2019-05-21T06:00:37.409Z,1.73
2019-05-21T06:03:06.471Z,2.50
2019-05-21T06:05:35.490Z,1.50
2019-05-21T06:08:04.515Z,1.87
2019-05-21T06:10:33.470Z,2.67
2019-05-21T06:13:02.586Z,1.23
2019-05-21T06:15:33.725Z,2.07
2019-05-21T06:18:02.598Z,1.40
2019-05-21T06:20:32.242Z,1.70
2019-05-21T06:23:04.151Z,1.73
2019-05-21T06:25:41.672Z,2.07
2019-05-21T06:30:50.114Z,2.70
2019-05-21T06:33:19.003Z,1.80
2019-05-21T06:35:47.993Z,2.13
2019-05-21T06:38:18.357Z,1.53
2019-05-21T06:40:47.444Z,1.47
2019-05-21T06:43:16.485Z,1.67
2019-05-21T06:45:45.458Z,1.27
2019-05-21T06:48:14.292Z,2.00
2019-05-21T06:50:43.317Z,1.60
2019-05-21T06:53:12.382Z,4.17
2019-05-21T06:55:41.298Z,2.30
2019-05-21T06:58:10.265Z,1.23
2019-05-21T07:00:39.415Z,2.07
2019-05-21T07:03:08.403Z,1.50
2019-05-21T07:05:37.275Z,1.00
2019-05-21T07:08:06.250Z,1.20
2019-05-21T07:10:35.214Z,0.47
2019-05-21T07:13:04.275Z,1.57
2019-05-21T07:15:33.319Z,2.07
2019-05-21T07:18:02.209Z,1.40
2019-05-21T07:20:31.177Z,1.10
2019-05-21T07:23:00.170Z,1.97
2019-05-21T07:25:29.192Z,1.73
2019-05-21T07:27:58.106Z,1.40
2019-05-21T07:30:27.287Z,2.27
2019-05-21T07:32:56.335Z,2.10
2019-05-21T07:35:25.276Z,1.67
2019-05-21T07:37:54.189Z,1.27
2019-05-21T07:40:23.142Z,1.27
2019-05-21T07:42:51.983Z,6.33
2019-05-21T07:45:20.942Z,1.63
2019-05-21T07:47:49.823Z,1.27
2019-05-21T07:50:18.821Z,2.73
2019-05-21T07:52:47.680Z,1.17
2019-05-21T07:55:16.700Z,1.30
2019-05-21T07:57:45.714Z,1.00
2019-05-21T08:00:17.842Z,1.23
2019-05-21T08:02:46.681Z,0.90
2019-05-21T08:05:15.644Z,1.03
2019-05-21T08:07:44.829Z,1.17
2019-05-21T08:10:14.021Z,1.10
2019-05-21T08:12:43.041Z,1.53
2019-05-21T08:15:12.744Z,4.83
2019-05-21T08:17:41.761Z,1.23
2019-05-21T08:20:12.386Z,2.77
2019-05-21T08:22:41.300Z,0.83
2019-05-21T08:25:14.120Z,4.30
2019-05-21T08:27:41.019Z,2.10
2019-05-21T08:30:10.552Z,0.70
2019-05-21T08:32:39.388Z,1.83
2019-05-21T08:35:08.670Z,1.73
2019-05-21T08:37:37.643Z,1.73
2019-05-21T08:40:06.982Z,1.17
2019-05-21T08:42:36.091Z,2.27
2019-05-21T08:45:06.158Z,2.00
2019-05-21T08:47:35.277Z,1.30
2019-05-21T08:50:04.907Z,1.40
2019-05-21T08:52:33.884Z,1.30
2019-05-21T08:55:02.804Z,3.97
2019-05-21T08:57:32.137Z,1.33
2019-05-21T09:00:01.087Z,1.40
2019-05-21T09:02:30.122Z,2.37
2019-05-21T09:04:59.035Z,3.47
2019-05-21T09:07:28.529Z,2.50
2019-05-21T09:09:57.519Z,1.67
2019-05-21T09:12:26.431Z,2.10
2019-05-21T09:14:55.247Z,1.50
2019-05-21T09:17:24.266Z,2.90
2019-05-21T09:19:53.174Z,1.73
2019-05-21T09:22:24.484Z,1.50
2019-05-21T09:24:53.556Z,4.20
2019-05-21T09:27:22.452Z,3.67
2019-05-21T09:29:51.446Z,1.60
2019-05-21T09:32:20.362Z,1.90
2019-05-21T09:34:49.621Z,2.00
2019-05-21T09:37:20.295Z,1.23
2019-05-21T09:39:49.185Z,1.90
2019-05-21T09:42:18.170Z,1.40
2019-05-21T09:44:46.958Z,1.47
2019-05-21T09:47:15.962Z,1.40
2019-05-21T09:49:44.919Z,2.20
2019-05-21T09:52:13.875Z,2.60
2019-05-21T09:54:42.744Z,2.17
2019-05-21T09:57:13.595Z,2.77
2019-05-21T09:59:50.541Z,1.67
2019-05-21T10:02:24.962Z,4.20
2019-05-21T10:04:53.994Z,2.07
2019-05-21T10:07:38.070Z,2.13
2019-05-21T10:09:53.722Z,3.13
2019-05-21T10:12:22.649Z,2.50
2019-05-21T10:14:51.444Z,2.37
2019-05-21T10:17:20.280Z,1.80
2019-05-21T10:19:49.154Z,2.77
2019-05-21T10:22:18.103Z,1.93
2019-05-21T10:24:47.104Z,1.57
2019-05-21T10:27:16.182Z,1.73
2019-05-21T10:29:45.068Z,2.50
2019-05-21T10:32:13.996Z,1.50
2019-05-21T10:34:42.953Z,3.53
2019-05-21T10:37:11.944Z,1.80
2019-05-21T10:39:40.913Z,1.90
2019-05-21T10:42:09.940Z,1.50
2019-05-21T10:44:38.973Z,2.03
2019-05-21T10:47:08.109Z,1.67
2019-05-21T10:49:37.111Z,1.57
2019-05-21T10:52:06.139Z,1.60
2019-05-21T10:54:35.106Z,4.20
2019-05-21T10:57:04.199Z,1.80
2019-05-21T10:59:33.273Z,1.60
2019-05-21T11:02:12.470Z,1.00
2019-05-21T11:05:03.375Z,1.53
2019-05-21T11:07:32.271Z,1.57
2019-05-21T11:10:01.231Z,1.57
2019-05-21T11:12:30.324Z,1.43
2019-05-21T11:14:59.350Z,1.60
2019-05-21T11:17:28.332Z,1.70
2019-05-21T11:19:57.211Z,1.07
2019-05-21T11:22:26.160Z,1.43
2019-05-21T11:24:54.974Z,1.37
2019-05-21T11:27:24.143Z,3.13
2019-05-21T11:29:53.130Z,1.70
2019-05-21T11:32:21.970Z,5.70
2019-05-21T11:34:50.957Z,2.73
2019-05-21T11:37:19.861Z,2.20
2019-05-21T11:39:48.946Z,3.47
2019-05-21T11:42:18.980Z,2.30
2019-05-21T11:44:47.855Z,1.97
2019-05-21T11:47:16.845Z,8.17
2019-05-21T11:49:45.843Z,5.27
2019-05-21T11:52:14.737Z,5.13
2019-05-21T11:54:43.601Z,3.47
2019-05-21T11:57:12.482Z,3.37
2019-05-21T11:59:41.455Z,3.80
2019-05-21T12:02:10.967Z,3.77
2019-05-21T12:04:39.845Z,3.83
2019-05-21T12:07:08.901Z,3.93
2019-05-21T12:09:37.905Z,4.20
2019-05-21T12:12:06.869Z,3.60
2019-05-21T12:14:35.741Z,4.63
2019-05-21T12:17:04.693Z,4.90
2019-05-21T12:19:33.647Z,4.43
2019-05-21T12:22:02.628Z,4.23
2019-05-21T12:24:31.614Z,4.20
2019-05-21T12:27:00.589Z,5.53
2019-05-21T12:29:29.656Z,5.23
2019-05-21T12:31:58.571Z,4.17
2019-05-21T12:34:27.543Z,5.20
2019-05-21T12:36:56.385Z,4.17
2019-05-21T12:39:25.218Z,6.07
2019-05-21T12:41:54.180Z,5.17
2019-05-21T12:44:23.222Z,5.37
2019-05-21T12:46:52.189Z,4.17
2019-05-21T12:49:21.265Z,5.00
2019-05-21T12:51:50.224Z,6.70
2019-05-21T12:54:19.147Z,6.45
2019-05-21T12:56:48.003Z,5.20
2019-05-21T12:59:16.843Z,5.37
2019-05-21T13:01:46.166Z,5.20
2019-05-21T13:04:14.963Z,5.23
2019-05-21T13:06:43.843Z,6.43
2019-05-21T13:09:12.862Z,6.67
2019-05-21T13:11:41.767Z,5.53
2019-05-21T13:14:14.881Z,7.30
2019-05-21T13:16:41.532Z,6.23
2019-05-21T13:19:11.392Z,5.30
2019-05-21T13:21:40.490Z,6.70
2019-05-21T13:24:09.472Z,6.20
2019-05-21T13:26:38.467Z,7.03
2019-05-21T13:29:07.473Z,7.03
2019-05-21T13:31:36.359Z,6.50
2019-05-21T13:34:05.395Z,6.73
2019-05-21T13:36:34.405Z,6.50
2019-05-21T13:39:05.272Z,7.93
2019-05-21T13:41:34.273Z,6.43
2019-05-21T13:44:03.202Z,7.07
2019-05-21T13:46:35.412Z,7.40
2019-05-21T13:49:02.905Z,6.53
2019-05-21T13:51:31.910Z,7.57
2019-05-21T13:54:00.938Z,7.67
2019-05-21T13:56:29.929Z,8.20
2019-05-21T13:58:58.871Z,7.47
2019-05-21T14:01:40.204Z,8.27
2019-05-21T14:03:58.710Z,11.50
2019-05-21T14:06:27.655Z,6.57
2019-05-21T14:08:56.635Z,9.13
2019-05-21T14:11:25.740Z,6.97
2019-05-21T14:13:54.700Z,6.43
2019-05-21T14:16:23.928Z,6.87
2019-05-21T14:18:53.078Z,8.27
2019-05-21T14:21:22.055Z,8.33
2019-05-21T14:23:50.884Z,7.57
2019-05-21T14:26:19.918Z,6.60
2019-05-21T14:28:48.943Z,7.50
2019-05-21T14:31:19.758Z,5.90
2019-05-21T14:33:48.898Z,7.93
2019-05-21T14:36:17.948Z,7.37
2019-05-21T14:38:46.863Z,7.50
2019-05-21T14:41:16.012Z,8.73
2019-05-21T14:43:44.978Z,8.10
2019-05-21T14:46:13.978Z,10.90
2019-05-21T14:48:42.962Z,6.87
2019-05-21T14:51:13.601Z,8.13
2019-05-21T14:53:42.648Z,9.43
2019-05-21T14:56:11.628Z,10.83
2019-05-21T14:58:40.554Z,6.53
2019-05-21T15:01:09.418Z,8.70
2019-05-21T15:03:38.482Z,10.23
2019-05-21T15:06:07.428Z,9.40
2019-05-21T15:08:37.633Z,8.20
2019-05-21T15:11:06.682Z,10.90
2019-05-21T15:13:35.559Z,7.47
2019-05-21T15:16:04.510Z,7.37
2019-05-21T15:18:33.457Z,7.80
2019-05-21T15:21:10.404Z,8.80
2019-05-21T15:23:40.889Z,6.27
2019-05-21T15:26:10.565Z,7.80
2019-05-21T15:28:39.438Z,7.03
2019-05-21T15:31:08.370Z,8.03
2019-05-21T15:33:37.387Z,8.17
2019-05-21T15:36:06.699Z,7.70
2019-05-21T15:38:49.470Z,7.83
2019-05-21T15:41:11.765Z,9.07
2019-05-21T15:43:36.969Z,10.07
2019-05-21T15:46:06.243Z,9.60
2019-05-21T15:48:35.237Z,8.70
2019-05-21T15:51:04.139Z,8.83
2019-05-21T15:53:33.063Z,11.27
2019-05-21T15:56:01.930Z,9.27
2019-05-21T15:58:30.867Z,9.17
2019-05-21T16:00:59.745Z,8.00
2019-05-21T16:03:28.733Z,8.70
2019-05-21T16:05:57.671Z,9.90
2019-05-21T16:08:26.669Z,7.43
2019-05-21T16:10:55.649Z,9.97
2019-05-21T16:13:24.625Z,9.47
2019-05-21T16:15:53.937Z,9.23
2019-05-21T16:18:23.002Z,9.70
2019-05-21T16:20:52.028Z,8.93
2019-05-21T16:23:20.852Z,8.63
2019-05-21T16:25:49.849Z,8.37
2019-05-21T16:28:18.785Z,9.07
2019-05-21T16:30:47.786Z,9.53
2019-05-21T16:33:16.776Z,10.80
2019-05-21T16:35:45.690Z,11.10
2019-05-21T16:38:14.670Z,13.40
2019-05-21T16:40:44.127Z,11.83
2019-05-21T16:43:13.129Z,11.20
2019-05-21T16:45:42.136Z,12.07
2019-05-21T16:48:11.412Z,13.50
2019-05-21T16:50:40.481Z,12.67
2019-05-21T16:53:09.484Z,12.20
2019-05-21T16:55:38.438Z,13.38
2019-05-21T16:58:07.440Z,11.97
2019-05-21T17:00:36.412Z,13.20
2019-05-21T17:03:05.617Z,13.20
2019-05-21T17:05:34.759Z,13.83
2019-05-21T17:08:03.884Z,13.90
2019-05-21T17:10:32.900Z,14.97
2019-05-21T17:13:01.853Z,13.73
2019-05-21T17:15:30.763Z,15.63
2019-05-21T17:17:59.565Z,12.73
2019-05-21T17:20:28.613Z,14.00
2019-05-21T17:22:57.559Z,14.87
2019-05-21T17:25:26.544Z,16.07
2019-05-21T17:27:55.399Z,14.10
2019-05-21T17:30:24.418Z,14.07
2019-05-21T17:32:53.331Z,15.90
2019-05-21T17:35:22.364Z,13.87
2019-05-21T17:37:51.413Z,16.57
2019-05-21T17:40:20.456Z,14.93
2019-05-21T17:42:49.623Z,14.23
2019-05-21T17:45:18.672Z,13.03
2019-05-21T17:47:47.677Z,13.07
2019-05-21T17:50:18.243Z,14.13
2019-05-21T17:52:47.836Z,13.03
2019-05-21T17:55:17.050Z,12.63
2019-05-21T17:57:46.411Z,12.63
2019-05-21T18:00:19.370Z,11.33
2019-05-21T18:02:48.289Z,13.03
2019-05-21T18:05:18.796Z,13.53
2019-05-21T18:07:47.663Z,12.10
2019-05-21T18:10:17.782Z,13.50
2019-05-21T18:12:47.233Z,14.50
2019-05-21T18:15:16.610Z,19.40
2019-05-21T18:17:46.106Z,14.33
2019-05-21T18:20:18.092Z,14.17
2019-05-21T18:22:48.516Z,15.03
2019-05-21T18:25:17.918Z,14.10
2019-05-21T18:27:48.718Z,14.13
2019-05-21T18:30:18.225Z,16.10
2019-05-21T18:32:47.457Z,14.83
2019-05-21T18:35:16.775Z,14.73
2019-05-21T18:37:45.610Z,13.77
2019-05-21T18:40:15.470Z,14.83
2019-05-21T18:42:44.422Z,15.68
2019-05-21T18:45:13.757Z,15.23
2019-05-21T18:47:42.761Z,14.53
2019-05-21T18:50:12.142Z,17.63
2019-05-21T18:52:41.038Z,15.33
2019-05-21T18:55:12.077Z,16.17
2019-05-21T18:57:41.204Z,16.13
2019-05-21T19:00:11.673Z,16.10
2019-05-21T19:02:41.465Z,13.93
2019-05-21T19:05:10.995Z,14.67
2019-05-21T19:07:40.517Z,14.20
2019-05-21T19:10:10.571Z,13.63
2019-05-21T19:12:39.898Z,14.93
2019-05-21T19:15:09.972Z,15.07
2019-05-21T19:17:38.975Z,14.20
2019-05-21T19:20:08.346Z,13.73
2019-05-21T19:22:38.992Z,14.03
2019-05-21T19:25:08.294Z,13.87
2019-05-21T19:27:37.719Z,14.10
2019-05-21T19:30:07.572Z,13.53
2019-05-21T19:32:36.608Z,15.23
2019-05-21T19:35:06.286Z,15.63
2019-05-21T19:37:35.300Z,14.13
2019-05-21T19:40:04.900Z,15.67
2019-05-21T19:42:33.934Z,14.67
2019-05-21T19:45:03.782Z,14.57
2019-05-21T19:47:32.775Z,14.27
2019-05-21T19:50:01.797Z,14.37
2019-05-21T19:52:30.796Z,13.93
2019-05-21T19:54:59.614Z,14.13
2019-05-21T19:57:30.324Z,13.37
2019-05-21T19:59:59.125Z,13.87
2019-05-21T20:02:29.999Z,13.93
2019-05-21T20:04:59.987Z,13.63
2019-05-21T20:07:29.565Z,13.43
2019-05-21T20:09:59.231Z,13.53
2019-05-21T20:12:28.501Z,14.90
2019-05-21T20:14:57.805Z,15.00
2019-05-21T20:17:28.366Z,16.83
2019-05-21T20:19:58.051Z,14.97
2019-05-21T20:22:27.360Z,14.70
2019-05-21T20:24:56.882Z,13.50
2019-05-21T20:27:26.979Z,13.07
2019-05-21T20:30:11.338Z,15.27
2019-05-21T20:32:27.149Z,15.73
2019-05-21T20:34:56.212Z,17.43
2019-05-21T20:37:26.873Z,16.43
2019-05-21T20:39:57.006Z,15.80
2019-05-21T20:42:28.896Z,15.17
2019-05-21T20:44:58.102Z,16.40
2019-05-21T20:47:27.228Z,17.27
2019-05-21T20:49:57.314Z,17.00
2019-05-21T20:52:26.710Z,18.23
2019-05-21T20:54:57.102Z,18.90
2019-05-21T20:57:27.178Z,17.17
2019-05-21T20:59:56.672Z,18.53
2019-05-21T21:02:26.354Z,18.80
2019-05-21T21:04:55.861Z,24.30
2019-05-21T21:07:25.024Z,18.80
2019-05-21T21:09:54.055Z,19.03
2019-05-21T21:12:23.954Z,19.17
2019-05-21T21:14:53.406Z,21.70
2019-05-21T21:17:23.291Z,20.43
2019-05-21T21:19:52.236Z,23.60
2019-05-21T21:22:21.192Z,23.70
2019-05-21T21:24:50.369Z,21.23
2019-05-21T21:27:20.080Z,21.23
2019-05-21T21:29:49.441Z,21.30
2019-05-21T21:32:19.180Z,21.00
2019-05-21T21:34:48.815Z,20.07
2019-05-21T21:37:18.340Z,19.77
2019-05-21T21:39:47.423Z,22.00
2019-05-21T21:42:16.678Z,18.57
2019-05-21T21:44:46.290Z,20.23
2019-05-21T21:47:15.754Z,19.27
2019-05-21T21:49:44.921Z,20.77
2019-05-21T21:52:15.014Z,20.30
2019-05-21T21:54:45.332Z,20.47
2019-05-21T21:57:14.615Z,21.10
2019-05-21T21:59:43.741Z,22.60
2019-05-21T22:02:29.026Z,22.83
2019-05-21T22:04:59.611Z,21.53
2019-05-21T22:07:29.630Z,20.37
2019-05-21T22:09:58.982Z,21.07
2019-05-21T22:12:28.013Z,22.87
2019-05-21T22:15:01.825Z,25.20
2019-05-21T22:17:31.008Z,29.07
2019-05-21T22:20:00.103Z,19.70
2019-05-21T22:22:29.765Z,25.63
2019-05-21T22:24:58.911Z,24.93
2019-05-21T22:27:27.793Z,24.40
2019-05-21T22:29:56.778Z,23.60
2019-05-21T22:32:26.712Z,31.50
2019-05-21T22:34:55.688Z,28.10
2019-05-21T22:37:26.440Z,27.13
2019-05-21T22:39:55.387Z,30.90
2019-05-21T22:42:25.247Z,33.87
2019-05-21T22:45:07.541Z,32.97
2019-05-21T22:47:25.706Z,30.47
2019-05-21T22:49:54.836Z,31.97
2019-05-21T22:52:23.913Z,34.93
2019-05-21T22:54:52.896Z,29.03
2019-05-21T22:57:21.842Z,34.67
2019-05-21T22:59:50.809Z,34.47
2019-05-21T23:02:24.299Z,32.10
2019-05-21T23:04:53.912Z,35.30
2019-05-21T23:07:23.142Z,34.37
2019-05-21T23:09:52.975Z,37.37
2019-05-21T23:12:21.954Z,34.73
2019-05-21T23:14:51.840Z,31.33
2019-05-21T23:17:21.179Z,31.77
2019-05-21T23:19:50.701Z,31.60
2019-05-21T23:22:22.611Z,33.03
2019-05-21T23:24:51.521Z,33.33
2019-05-21T23:27:21.637Z,29.83
2019-05-21T23:29:50.851Z,27.20
2019-05-21T23:32:20.739Z,27.13
2019-05-21T23:34:53.477Z,29.83
2019-05-21T23:37:25.621Z,28.00
2019-05-21T23:39:55.679Z,27.70
2019-05-21T23:42:29.369Z,25.80
2019-05-21T23:44:55.880Z,24.00
2019-05-21T23:47:25.090Z,24.37
2019-05-21T23:49:54.424Z,22.13
2019-05-21T23:52:23.926Z,21.50
2019-05-21T23:54:52.804Z,20.97
2019-05-21T23:57:27.746Z,24.43
2019-05-21T23:59:57.322Z,21.17
